Terminal Aerodrome Forecast
Issued by NWS Pittsburgh, PA

Current Version | Previous Version | Graphics & Text | Print | Product List | Glossary On
Versions: 1 2 3 4 5 6 7 8 9 10 11 12 13 14 15 16 17 18 19 20 21 22 23 24 25 26 27 28
000
FTUS41 KPBZ 311100
TAFPIT
TAF
KPIT 311138Z 3112/0118 20003KT 6SM BR SCT040 BKN100
     FM311400 21010KT P6SM SCT100
     FM312300 VRB05KT P6SM SKC
     FM010800 VRB03KT 5SM BR SKC
     FM011400 13005KT P6SM BKN080=

USA.gov is the U.S. government's official web portal to all federal, state and local government web resources and services.